sensor_id;sensor_type;location;lat;lon;timestamp;temperature;humidity
78438;SHT31;67736;51.978;5.656;2023-08-24T00:01:14;21.3;62.3
78438;SHT31;67736;51.978;5.656;2023-08-24T00:03:45;21.2;62.6
78438;SHT31;67736;51.978;5.656;2023-08-24T00:06:15;21.1;62.9
78438;SHT31;67736;51.978;5.656;2023-08-24T00:08:45;21.1;63.1
78438;SHT31;67736;51.978;5.656;2023-08-24T00:11:15;21.1;63.2
78438;SHT31;67736;51.978;5.656;2023-08-24T00:13:44;21.0;63.1
78438;SHT31;67736;51.978;5.656;2023-08-24T00:16:16;21.0;63.4
78438;SHT31;67736;51.978;5.656;2023-08-24T00:18:47;21.0;63.8
78438;SHT31;67736;51.978;5.656;2023-08-24T00:21:16;21.0;63.7
78438;SHT31;67736;51.978;5.656;2023-08-24T00:23:50;21.0;63.6
78438;SHT31;67736;51.978;5.656;2023-08-24T00:26:22;21.0;63.7
78438;SHT31;67736;51.978;5.656;2023-08-24T00:28:54;20.9;63.8
78438;SHT31;67736;51.978;5.656;2023-08-24T00:31:23;20.9;64.0
78438;SHT31;67736;51.978;5.656;2023-08-24T00:33:53;20.9;64.0
78438;SHT31;67736;51.978;5.656;2023-08-24T00:36:22;20.9;64.2
78438;SHT31;67736;51.978;5.656;2023-08-24T00:38:52;20.9;64.0
78438;SHT31;67736;51.978;5.656;2023-08-24T00:41:23;20.9;64.2
78438;SHT31;67736;51.978;5.656;2023-08-24T00:43:53;20.8;64.2
78438;SHT31;67736;51.978;5.656;2023-08-24T00:46:23;20.8;64.4
78438;SHT31;67736;51.978;5.656;2023-08-24T00:48:55;20.8;64.2
78438;SHT31;67736;51.978;5.656;2023-08-24T00:51:26;20.8;64.3
78438;SHT31;67736;51.978;5.656;2023-08-24T00:53:56;20.8;64.3
78438;SHT31;67736;51.978;5.656;2023-08-24T00:56:26;20.7;64.6
78438;SHT31;67736;51.978;5.656;2023-08-24T00:58:57;20.7;64.5
78438;SHT31;67736;51.978;5.656;2023-08-24T01:01:27;20.7;64.6
78438;SHT31;67736;51.978;5.656;2023-08-24T01:03:57;20.6;64.7
78438;SHT31;67736;51.978;5.656;2023-08-24T01:06:27;20.6;65.0
78438;SHT31;67736;51.978;5.656;2023-08-24T01:08:57;20.5;65.2
78438;SHT31;67736;51.978;5.656;2023-08-24T01:11:35;20.5;65.4
78438;SHT31;67736;51.978;5.656;2023-08-24T01:14:20;20.5;65.5
78438;SHT31;67736;51.978;5.656;2023-08-24T01:16:54;20.4;65.7
78438;SHT31;67736;51.978;5.656;2023-08-24T01:19:39;20.4;65.8
78438;SHT31;67736;51.978;5.656;2023-08-24T01:22:28;20.4;66.1
78438;SHT31;67736;51.978;5.656;2023-08-24T01:25:05;20.3;66.2
78438;SHT31;67736;51.978;5.656;2023-08-24T01:27:38;20.3;66.3
78438;SHT31;67736;51.978;5.656;2023-08-24T01:30:11;20.3;66.3
78438;SHT31;67736;51.978;5.656;2023-08-24T01:32:41;20.3;66.6
78438;SHT31;67736;51.978;5.656;2023-08-24T01:35:11;20.3;66.6
78438;SHT31;67736;51.978;5.656;2023-08-24T01:37:40;20.3;66.8
78438;SHT31;67736;51.978;5.656;2023-08-24T01:40:17;20.2;67.0
78438;SHT31;67736;51.978;5.656;2023-08-24T01:42:55;20.2;67.1
78438;SHT31;67736;51.978;5.656;2023-08-24T01:45:29;20.2;67.3
78438;SHT31;67736;51.978;5.656;2023-08-24T01:48:02;20.3;67.3
78438;SHT31;67736;51.978;5.656;2023-08-24T01:50:32;20.3;67.4
78438;SHT31;67736;51.978;5.656;2023-08-24T01:53:03;20.3;67.4
78438;SHT31;67736;51.978;5.656;2023-08-24T01:55:33;20.3;67.6
78438;SHT31;67736;51.978;5.656;2023-08-24T01:58:04;20.4;67.7
78438;SHT31;67736;51.978;5.656;2023-08-24T02:00:34;20.4;67.8
78438;SHT31;67736;51.978;5.656;2023-08-24T02:03:04;20.4;67.8
78438;SHT31;67736;51.978;5.656;2023-08-24T02:05:33;20.4;67.9
78438;SHT31;67736;51.978;5.656;2023-08-24T02:08:03;20.4;68.1
78438;SHT31;67736;51.978;5.656;2023-08-24T02:10:33;20.5;68.1
78438;SHT31;67736;51.978;5.656;2023-08-24T02:13:03;20.5;68.2
78438;SHT31;67736;51.978;5.656;2023-08-24T02:15:34;20.5;68.0
78438;SHT31;67736;51.978;5.656;2023-08-24T02:18:04;20.5;68.0
78438;SHT31;67736;51.978;5.656;2023-08-24T02:20:36;20.5;68.3
78438;SHT31;67736;51.978;5.656;2023-08-24T02:23:06;20.5;68.3
78438;SHT31;67736;51.978;5.656;2023-08-24T02:25:43;20.5;68.4
78438;SHT31;67736;51.978;5.656;2023-08-24T02:28:13;20.5;68.7
78438;SHT31;67736;51.978;5.656;2023-08-24T02:30:42;20.5;68.9
78438;SHT31;67736;51.978;5.656;2023-08-24T02:33:12;20.5;69.2
78438;SHT31;67736;51.978;5.656;2023-08-24T02:35:41;20.6;69.3
78438;SHT31;67736;51.978;5.656;2023-08-24T02:38:12;20.6;69.5
78438;SHT31;67736;51.978;5.656;2023-08-24T02:40:43;20.6;69.8
78438;SHT31;67736;51.978;5.656;2023-08-24T02:43:12;20.6;70.0
78438;SHT31;67736;51.978;5.656;2023-08-24T02:45:42;20.6;70.5
78438;SHT31;67736;51.978;5.656;2023-08-24T02:48:12;20.6;70.5
78438;SHT31;67736;51.978;5.656;2023-08-24T02:50:45;20.6;70.9
78438;SHT31;67736;51.978;5.656;2023-08-24T02:53:15;20.6;71.3
78438;SHT31;67736;51.978;5.656;2023-08-24T02:55:44;20.6;71.1
78438;SHT31;67736;51.978;5.656;2023-08-24T02:58:14;20.6;70.8
78438;SHT31;67736;51.978;5.656;2023-08-24T03:00:43;20.6;71.0
78438;SHT31;67736;51.978;5.656;2023-08-24T03:03:14;20.6;71.5
78438;SHT31;67736;51.978;5.656;2023-08-24T03:05:53;20.6;71.6
78438;SHT31;67736;51.978;5.656;2023-08-24T03:08:23;20.6;71.8
78438;SHT31;67736;51.978;5.656;2023-08-24T03:10:52;20.6;71.9
78438;SHT31;67736;51.978;5.656;2023-08-24T03:13:22;20.5;72.0
78438;SHT31;67736;51.978;5.656;2023-08-24T03:15:52;20.5;72.2
78438;SHT31;67736;51.978;5.656;2023-08-24T03:18:22;20.6;72.2
78438;SHT31;67736;51.978;5.656;2023-08-24T03:20:51;20.6;72.1
78438;SHT31;67736;51.978;5.656;2023-08-24T03:23:23;20.5;72.1
78438;SHT31;67736;51.978;5.656;2023-08-24T03:25:53;20.5;71.9
78438;SHT31;67736;51.978;5.656;2023-08-24T03:28:22;20.5;71.9
78438;SHT31;67736;51.978;5.656;2023-08-24T03:30:52;20.5;71.8
78438;SHT31;67736;51.978;5.656;2023-08-24T03:33:23;20.4;71.9
78438;SHT31;67736;51.978;5.656;2023-08-24T03:35:54;20.4;72.0
78438;SHT31;67736;51.978;5.656;2023-08-24T03:38:23;20.4;72.0
78438;SHT31;67736;51.978;5.656;2023-08-24T03:41:01;20.3;72.2
78438;SHT31;67736;51.978;5.656;2023-08-24T03:43:33;20.3;72.2
78438;SHT31;67736;51.978;5.656;2023-08-24T03:46:04;20.3;72.4
78438;SHT31;67736;51.978;5.656;2023-08-24T03:48:35;20.2;72.6
78438;SHT31;67736;51.978;5.656;2023-08-24T03:51:06;20.2;72.6
78438;SHT31;67736;51.978;5.656;2023-08-24T03:53:36;20.2;72.7
78438;SHT31;67736;51.978;5.656;2023-08-24T03:56:05;20.2;72.7
78438;SHT31;67736;51.978;5.656;2023-08-24T03:58:36;20.1;72.7
78438;SHT31;67736;51.978;5.656;2023-08-24T04:01:09;20.1;72.6
78438;SHT31;67736;51.978;5.656;2023-08-24T04:03:39;20.1;72.6
78438;SHT31;67736;51.978;5.656;2023-08-24T04:06:08;20.1;72.7
78438;SHT31;67736;51.978;5.656;2023-08-24T04:08:38;20.1;72.6
78438;SHT31;67736;51.978;5.656;2023-08-24T04:11:08;20.1;72.6
78438;SHT31;67736;51.978;5.656;2023-08-24T04:13:40;20.1;72.5
78438;SHT31;67736;51.978;5.656;2023-08-24T04:16:11;20.2;72.5
78438;SHT31;67736;51.978;5.656;2023-08-24T04:18:40;20.2;72.5
78438;SHT31;67736;51.978;5.656;2023-08-24T04:21:10;20.2;72.6
78438;SHT31;67736;51.978;5.656;2023-08-24T04:23:40;20.3;72.4
78438;SHT31;67736;51.978;5.656;2023-08-24T04:26:12;20.3;72.0
78438;SHT31;67736;51.978;5.656;2023-08-24T04:28:44;20.3;71.9
78438;SHT31;67736;51.978;5.656;2023-08-24T04:31:13;20.3;72.0
78438;SHT31;67736;51.978;5.656;2023-08-24T04:33:43;20.4;72.1
78438;SHT31;67736;51.978;5.656;2023-08-24T04:36:12;20.4;72.0
78438;SHT31;67736;51.978;5.656;2023-08-24T04:38:42;20.4;72.3
78438;SHT31;67736;51.978;5.656;2023-08-24T04:41:12;20.5;72.0
78438;SHT31;67736;51.978;5.656;2023-08-24T04:43:42;20.5;71.8
78438;SHT31;67736;51.978;5.656;2023-08-24T04:46:11;20.5;71.8
78438;SHT31;67736;51.978;5.656;2023-08-24T04:48:40;20.5;71.3
78438;SHT31;67736;51.978;5.656;2023-08-24T04:51:10;20.5;70.8
78438;SHT31;67736;51.978;5.656;2023-08-24T04:53:39;20.6;70.7
78438;SHT31;67736;51.978;5.656;2023-08-24T04:56:09;20.6;70.5
78438;SHT31;67736;51.978;5.656;2023-08-24T04:58:39;20.5;70.6
78438;SHT31;67736;51.978;5.656;2023-08-24T05:01:09;20.5;70.6
78438;SHT31;67736;51.978;5.656;2023-08-24T05:03:38;20.5;70.8
78438;SHT31;67736;51.978;5.656;2023-08-24T05:06:08;20.5;70.9
78438;SHT31;67736;51.978;5.656;2023-08-24T05:08:37;20.5;71.3
78438;SHT31;67736;51.978;5.656;2023-08-24T05:11:12;20.5;71.1
78438;SHT31;67736;51.978;5.656;2023-08-24T05:13:43;20.6;71.0
78438;SHT31;67736;51.978;5.656;2023-08-24T05:16:13;20.6;71.1
78438;SHT31;67736;51.978;5.656;2023-08-24T05:18:43;20.6;71.3
78438;SHT31;67736;51.978;5.656;2023-08-24T05:21:13;20.6;71.3
78438;SHT31;67736;51.978;5.656;2023-08-24T05:23:43;20.6;71.2
78438;SHT31;67736;51.978;5.656;2023-08-24T05:26:12;20.6;71.2
78438;SHT31;67736;51.978;5.656;2023-08-24T05:28:47;20.6;71.5
78438;SHT31;67736;51.978;5.656;2023-08-24T05:31:16;20.6;71.3
78438;SHT31;67736;51.978;5.656;2023-08-24T05:33:49;20.7;71.7
78438;SHT31;67736;51.978;5.656;2023-08-24T05:36:19;20.7;71.7
78438;SHT31;67736;51.978;5.656;2023-08-24T05:38:48;20.7;71.8
78438;SHT31;67736;51.978;5.656;2023-08-24T05:41:22;20.7;72.1
78438;SHT31;67736;51.978;5.656;2023-08-24T05:43:51;20.7;71.6
78438;SHT31;67736;51.978;5.656;2023-08-24T05:46:22;20.7;71.3
78438;SHT31;67736;51.978;5.656;2023-08-24T05:48:51;20.7;71.1
78438;SHT31;67736;51.978;5.656;2023-08-24T05:51:21;20.7;71.7
78438;SHT31;67736;51.978;5.656;2023-08-24T05:53:50;20.7;71.3
78438;SHT31;67736;51.978;5.656;2023-08-24T05:56:22;20.8;72.1
78438;SHT31;67736;51.978;5.656;2023-08-24T05:58:53;20.8;71.1
78438;SHT31;67736;51.978;5.656;2023-08-24T06:01:23;20.8;71.0
78438;SHT31;67736;51.978;5.656;2023-08-24T06:03:52;20.8;71.0
78438;SHT31;67736;51.978;5.656;2023-08-24T06:06:22;20.8;70.8
78438;SHT31;67736;51.978;5.656;2023-08-24T06:08:51;20.8;70.7
78438;SHT31;67736;51.978;5.656;2023-08-24T06:11:22;20.8;70.4
78438;SHT31;67736;51.978;5.656;2023-08-24T06:13:52;20.8;71.0
78438;SHT31;67736;51.978;5.656;2023-08-24T06:16:22;20.8;70.7
78438;SHT31;67736;51.978;5.656;2023-08-24T06:18:51;20.8;70.9
78438;SHT31;67736;51.978;5.656;2023-08-24T06:21:21;20.8;71.2
78438;SHT31;67736;51.978;5.656;2023-08-24T06:23:51;20.8;72.0
78438;SHT31;67736;51.978;5.656;2023-08-24T06:26:21;20.8;71.3
78438;SHT31;67736;51.978;5.656;2023-08-24T06:28:50;20.8;71.9
78438;SHT31;67736;51.978;5.656;2023-08-24T06:31:20;20.8;71.4
78438;SHT31;67736;51.978;5.656;2023-08-24T06:33:49;20.9;71.7
78438;SHT31;67736;51.978;5.656;2023-08-24T06:36:20;20.9;70.5
78438;SHT31;67736;51.978;5.656;2023-08-24T06:38:50;20.9;71.3
78438;SHT31;67736;51.978;5.656;2023-08-24T06:41:19;21.0;71.3
78438;SHT31;67736;51.978;5.656;2023-08-24T06:43:49;21.0;70.9
78438;SHT31;67736;51.978;5.656;2023-08-24T06:46:21;21.1;71.0
78438;SHT31;67736;51.978;5.656;2023-08-24T06:48:51;21.1;70.9
78438;SHT31;67736;51.978;5.656;2023-08-24T06:51:22;21.2;70.8
78438;SHT31;67736;51.978;5.656;2023-08-24T06:53:52;21.2;70.7
78438;SHT31;67736;51.978;5.656;2023-08-24T06:56:21;21.3;70.8
78438;SHT31;67736;51.978;5.656;2023-08-24T06:58:51;21.4;70.4
78438;SHT31;67736;51.978;5.656;2023-08-24T07:01:20;21.4;70.2
78438;SHT31;67736;51.978;5.656;2023-08-24T07:03:50;21.5;70.5
78438;SHT31;67736;51.978;5.656;2023-08-24T07:06:19;21.5;69.9
78438;SHT31;67736;51.978;5.656;2023-08-24T07:08:49;21.6;69.6
78438;SHT31;67736;51.978;5.656;2023-08-24T07:11:18;21.7;69.6
78438;SHT31;67736;51.978;5.656;2023-08-24T07:13:51;21.8;69.5
78438;SHT31;67736;51.978;5.656;2023-08-24T07:16:21;21.8;70.1
78438;SHT31;67736;51.978;5.656;2023-08-24T07:18:50;21.9;70.0
78438;SHT31;67736;51.978;5.656;2023-08-24T07:21:20;22.0;68.2
78438;SHT31;67736;51.978;5.656;2023-08-24T07:23:51;22.1;67.5
78438;SHT31;67736;51.978;5.656;2023-08-24T07:26:21;22.2;66.8
78438;SHT31;67736;51.978;5.656;2023-08-24T07:28:53;22.4;67.5
78438;SHT31;67736;51.978;5.656;2023-08-24T07:31:24;22.5;65.8
78438;SHT31;67736;51.978;5.656;2023-08-24T07:33:54;22.6;65.5
78438;SHT31;67736;51.978;5.656;2023-08-24T07:36:23;22.8;65.0
78438;SHT31;67736;51.978;5.656;2023-08-24T07:38:55;22.9;63.6
78438;SHT31;67736;51.978;5.656;2023-08-24T07:41:25;23.0;62.5
78438;SHT31;67736;51.978;5.656;2023-08-24T07:43:54;23.2;61.9
78438;SHT31;67736;51.978;5.656;2023-08-24T07:46:24;23.3;62.3
78438;SHT31;67736;51.978;5.656;2023-08-24T07:48:55;23.5;61.5
78438;SHT31;67736;51.978;5.656;2023-08-24T07:51:25;23.8;62.2
78438;SHT31;67736;51.978;5.656;2023-08-24T07:53:55;24.0;61.0
78438;SHT31;67736;51.978;5.656;2023-08-24T07:56:25;24.2;61.2
78438;SHT31;67736;51.978;5.656;2023-08-24T07:58:55;24.5;59.2
78438;SHT31;67736;51.978;5.656;2023-08-24T08:01:24;24.7;58.7
78438;SHT31;67736;51.978;5.656;2023-08-24T08:03:54;24.9;58.8
78438;SHT31;67736;51.978;5.656;2023-08-24T08:06:24;25.1;58.6
78438;SHT31;67736;51.978;5.656;2023-08-24T08:08:54;25.4;56.4
78438;SHT31;67736;51.978;5.656;2023-08-24T08:11:25;25.6;55.3
78438;SHT31;67736;51.978;5.656;2023-08-24T08:13:54;25.9;53.8
78438;SHT31;67736;51.978;5.656;2023-08-24T08:16:24;26.1;53.9
78438;SHT31;67736;51.978;5.656;2023-08-24T08:18:53;26.3;53.6
78438;SHT31;67736;51.978;5.656;2023-08-24T08:21:23;26.5;53.9
78438;SHT31;67736;51.978;5.656;2023-08-24T08:23:53;26.7;52.6
78438;SHT31;67736;51.978;5.656;2023-08-24T08:26:23;26.9;51.9
78438;SHT31;67736;51.978;5.656;2023-08-24T08:28:52;27.0;51.5
78438;SHT31;67736;51.978;5.656;2023-08-24T08:31:22;27.1;51.6
78438;SHT31;67736;51.978;5.656;2023-08-24T08:33:51;27.1;51.2
78438;SHT31;67736;51.978;5.656;2023-08-24T08:36:21;27.2;51.8
78438;SHT31;67736;51.978;5.656;2023-08-24T08:38:51;27.3;51.5
78438;SHT31;67736;51.978;5.656;2023-08-24T08:41:22;27.3;51.0
78438;SHT31;67736;51.978;5.656;2023-08-24T08:43:52;27.4;51.6
78438;SHT31;67736;51.978;5.656;2023-08-24T08:46:21;27.4;52.0
78438;SHT31;67736;51.978;5.656;2023-08-24T08:48:52;27.5;51.2
78438;SHT31;67736;51.978;5.656;2023-08-24T08:51:22;27.6;51.6
78438;SHT31;67736;51.978;5.656;2023-08-24T08:53:53;27.6;51.1
78438;SHT31;67736;51.978;5.656;2023-08-24T08:56:23;27.7;51.4
78438;SHT31;67736;51.978;5.656;2023-08-24T08:58:56;27.8;52.0
78438;SHT31;67736;51.978;5.656;2023-08-24T09:01:28;27.8;51.9
78438;SHT31;67736;51.978;5.656;2023-08-24T09:04:00;27.9;51.9
78438;SHT31;67736;51.978;5.656;2023-08-24T09:06:31;27.9;51.0
78438;SHT31;67736;51.978;5.656;2023-08-24T09:09:01;28.0;51.0
78438;SHT31;67736;51.978;5.656;2023-08-24T09:11:31;28.0;51.3
78438;SHT31;67736;51.978;5.656;2023-08-24T09:14:00;28.1;50.8
78438;SHT31;67736;51.978;5.656;2023-08-24T09:16:32;28.1;51.1
78438;SHT31;67736;51.978;5.656;2023-08-24T09:19:05;28.1;50.8
78438;SHT31;67736;51.978;5.656;2023-08-24T09:21:39;28.1;50.6
78438;SHT31;67736;51.978;5.656;2023-08-24T09:24:11;28.1;51.7
78438;SHT31;67736;51.978;5.656;2023-08-24T09:26:41;28.2;51.2
78438;SHT31;67736;51.978;5.656;2023-08-24T09:29:13;28.2;51.1
78438;SHT31;67736;51.978;5.656;2023-08-24T09:31:43;28.3;50.9
78438;SHT31;67736;51.978;5.656;2023-08-24T09:34:13;28.3;51.2
78438;SHT31;67736;51.978;5.656;2023-08-24T09:36:42;28.4;51.6
78438;SHT31;67736;51.978;5.656;2023-08-24T09:39:16;28.4;50.9
78438;SHT31;67736;51.978;5.656;2023-08-24T09:41:49;28.5;50.2
78438;SHT31;67736;51.978;5.656;2023-08-24T09:44:19;28.5;50.1
78438;SHT31;67736;51.978;5.656;2023-08-24T09:46:49;28.6;50.9
78438;SHT31;67736;51.978;5.656;2023-08-24T09:49:20;28.7;50.5
78438;SHT31;67736;51.978;5.656;2023-08-24T09:51:49;28.8;50.2
78438;SHT31;67736;51.978;5.656;2023-08-24T09:54:21;28.9;49.9
78438;SHT31;67736;51.978;5.656;2023-08-24T09:56:58;28.9;49.0
78438;SHT31;67736;51.978;5.656;2023-08-24T09:59:31;29.0;49.2
78438;SHT31;67736;51.978;5.656;2023-08-24T10:02:01;29.0;49.3
78438;SHT31;67736;51.978;5.656;2023-08-24T10:04:34;29.0;48.9
78438;SHT31;67736;51.978;5.656;2023-08-24T10:07:08;29.0;49.0
78438;SHT31;67736;51.978;5.656;2023-08-24T10:09:45;29.0;49.5
78438;SHT31;67736;51.978;5.656;2023-08-24T10:12:19;29.0;48.9
78438;SHT31;67736;51.978;5.656;2023-08-24T10:14:56;29.0;49.1
78438;SHT31;67736;51.978;5.656;2023-08-24T10:17:29;29.0;49.6
78438;SHT31;67736;51.978;5.656;2023-08-24T10:20:00;29.0;49.5
78438;SHT31;67736;51.978;5.656;2023-08-24T10:22:34;29.1;49.8
78438;SHT31;67736;51.978;5.656;2023-08-24T10:25:04;29.1;49.9
78438;SHT31;67736;51.978;5.656;2023-08-24T10:27:35;29.1;49.6
78438;SHT31;67736;51.978;5.656;2023-08-24T10:30:11;29.1;50.8
78438;SHT31;67736;51.978;5.656;2023-08-24T10:32:43;29.1;49.4
78438;SHT31;67736;51.978;5.656;2023-08-24T10:35:16;29.1;49.2
78438;SHT31;67736;51.978;5.656;2023-08-24T10:37:46;29.0;49.2
78438;SHT31;67736;51.978;5.656;2023-08-24T10:40:32;29.0;49.5
78438;SHT31;67736;51.978;5.656;2023-08-24T10:43:04;28.9;49.8
78438;SHT31;67736;51.978;5.656;2023-08-24T10:45:56;28.9;50.0
78438;SHT31;67736;51.978;5.656;2023-08-24T10:48:28;28.8;50.5
78438;SHT31;67736;51.978;5.656;2023-08-24T10:51:20;28.7;51.0
78438;SHT31;67736;51.978;5.656;2023-08-24T10:53:55;28.6;51.1
78438;SHT31;67736;51.978;5.656;2023-08-24T10:56:32;28.5;51.7
78438;SHT31;67736;51.978;5.656;2023-08-24T10:59:15;28.4;51.8
78438;SHT31;67736;51.978;5.656;2023-08-24T11:01:59;28.4;51.9
78438;SHT31;67736;51.978;5.656;2023-08-24T11:04:29;28.3;51.9
78438;SHT31;67736;51.978;5.656;2023-08-24T11:06:59;28.2;52.4
78438;SHT31;67736;51.978;5.656;2023-08-24T11:09:45;28.1;52.6
78438;SHT31;67736;51.978;5.656;2023-08-24T11:12:17;28.1;52.8
78438;SHT31;67736;51.978;5.656;2023-08-24T11:14:53;28.0;53.0
78438;SHT31;67736;51.978;5.656;2023-08-24T11:17:30;27.9;53.6
78438;SHT31;67736;51.978;5.656;2023-08-24T11:20:00;27.9;53.6
78438;SHT31;67736;51.978;5.656;2023-08-24T11:22:31;27.8;54.1
78438;SHT31;67736;51.978;5.656;2023-08-24T11:25:01;27.8;54.2
78438;SHT31;67736;51.978;5.656;2023-08-24T11:27:33;27.7;54.6
78438;SHT31;67736;51.978;5.656;2023-08-24T11:30:06;27.7;54.3
78438;SHT31;67736;51.978;5.656;2023-08-24T11:32:36;27.7;54.2
78438;SHT31;67736;51.978;5.656;2023-08-24T11:35:06;27.6;54.5
78438;SHT31;67736;51.978;5.656;2023-08-24T11:37:36;27.6;54.6
78438;SHT31;67736;51.978;5.656;2023-08-24T11:40:17;27.5;55.1
78438;SHT31;67736;51.978;5.656;2023-08-24T11:42:48;27.5;55.2
78438;SHT31;67736;51.978;5.656;2023-08-24T11:45:18;27.4;55.6
78438;SHT31;67736;51.978;5.656;2023-08-24T11:47:48;27.4;56.0
78438;SHT31;67736;51.978;5.656;2023-08-24T11:50:20;27.4;55.5
78438;SHT31;67736;51.978;5.656;2023-08-24T11:52:50;27.4;55.9
78438;SHT31;67736;51.978;5.656;2023-08-24T11:55:20;27.4;55.8
78438;SHT31;67736;51.978;5.656;2023-08-24T11:57:51;27.4;55.8
78438;SHT31;67736;51.978;5.656;2023-08-24T12:00:21;27.4;55.8
78438;SHT31;67736;51.978;5.656;2023-08-24T12:02:52;27.3;55.5
78438;SHT31;67736;51.978;5.656;2023-08-24T12:05:23;27.3;55.7
78438;SHT31;67736;51.978;5.656;2023-08-24T12:07:54;27.3;56.0
78438;SHT31;67736;51.978;5.656;2023-08-24T12:10:24;27.3;56.1
78438;SHT31;67736;51.978;5.656;2023-08-24T12:13:03;27.3;56.5
78438;SHT31;67736;51.978;5.656;2023-08-24T12:15:36;27.3;56.2
78438;SHT31;67736;51.978;5.656;2023-08-24T12:18:10;27.3;56.3
78438;SHT31;67736;51.978;5.656;2023-08-24T12:20:41;27.3;57.2
78438;SHT31;67736;51.978;5.656;2023-08-24T12:23:10;27.3;56.3
78438;SHT31;67736;51.978;5.656;2023-08-24T12:25:44;27.4;55.4
78438;SHT31;67736;51.978;5.656;2023-08-24T12:28:15;27.4;55.9
78438;SHT31;67736;51.978;5.656;2023-08-24T12:30:46;27.4;56.0
78438;SHT31;67736;51.978;5.656;2023-08-24T12:33:23;27.5;55.8
78438;SHT31;67736;51.978;5.656;2023-08-24T12:35:53;27.5;56.2
78438;SHT31;67736;51.978;5.656;2023-08-24T12:38:24;27.5;56.7
78438;SHT31;67736;51.978;5.656;2023-08-24T12:40:54;27.6;55.8
78438;SHT31;67736;51.978;5.656;2023-08-24T12:43:24;27.6;55.7
78438;SHT31;67736;51.978;5.656;2023-08-24T12:45:54;27.6;55.7
78438;SHT31;67736;51.978;5.656;2023-08-24T12:48:23;27.6;56.0
78438;SHT31;67736;51.978;5.656;2023-08-24T12:50:52;27.6;56.6
78438;SHT31;67736;51.978;5.656;2023-08-24T12:53:22;27.6;57.4
78438;SHT31;67736;51.978;5.656;2023-08-24T12:55:52;27.7;57.1
78438;SHT31;67736;51.978;5.656;2023-08-24T12:58:22;27.7;56.7
78438;SHT31;67736;51.978;5.656;2023-08-24T13:00:52;27.7;57.2
78438;SHT31;67736;51.978;5.656;2023-08-24T13:03:23;27.8;56.2
78438;SHT31;67736;51.978;5.656;2023-08-24T13:05:53;27.8;56.2
78438;SHT31;67736;51.978;5.656;2023-08-24T13:08:22;27.8;56.5
78438;SHT31;67736;51.978;5.656;2023-08-24T13:10:53;27.9;55.8
78438;SHT31;67736;51.978;5.656;2023-08-24T13:13:24;27.9;55.6
78438;SHT31;67736;51.978;5.656;2023-08-24T13:15:53;27.9;56.0
78438;SHT31;67736;51.978;5.656;2023-08-24T13:18:23;27.9;56.1
78438;SHT31;67736;51.978;5.656;2023-08-24T13:20:52;27.9;55.5
78438;SHT31;67736;51.978;5.656;2023-08-24T13:23:21;27.9;56.0
78438;SHT31;67736;51.978;5.656;2023-08-24T13:25:51;27.9;56.4
78438;SHT31;67736;51.978;5.656;2023-08-24T13:28:23;27.9;55.7
78438;SHT31;67736;51.978;5.656;2023-08-24T13:30:53;28.0;56.2
78438;SHT31;67736;51.978;5.656;2023-08-24T13:33:22;28.0;56.4
78438;SHT31;67736;51.978;5.656;2023-08-24T13:35:52;28.1;56.2
78438;SHT31;67736;51.978;5.656;2023-08-24T13:38:21;28.1;56.2
78438;SHT31;67736;51.978;5.656;2023-08-24T13:40:51;28.2;56.7
78438;SHT31;67736;51.978;5.656;2023-08-24T13:43:20;28.3;56.5
78438;SHT31;67736;51.978;5.656;2023-08-24T13:45:52;28.3;55.2
78438;SHT31;67736;51.978;5.656;2023-08-24T13:48:21;28.4;54.4
78438;SHT31;67736;51.978;5.656;2023-08-24T13:50:51;28.4;54.0
78438;SHT31;67736;51.978;5.656;2023-08-24T13:53:22;28.5;54.1
78438;SHT31;67736;51.978;5.656;2023-08-24T13:55:52;28.5;53.3
78438;SHT31;67736;51.978;5.656;2023-08-24T13:58:22;28.5;53.4
78438;SHT31;67736;51.978;5.656;2023-08-24T14:00:57;28.5;53.3
78438;SHT31;67736;51.978;5.656;2023-08-24T14:03:26;28.6;53.2
78438;SHT31;67736;51.978;5.656;2023-08-24T14:06:00;28.6;53.2
78438;SHT31;67736;51.978;5.656;2023-08-24T14:08:29;28.6;53.3
78438;SHT31;67736;51.978;5.656;2023-08-24T14:10:59;28.6;53.3
78438;SHT31;67736;51.978;5.656;2023-08-24T14:13:31;28.6;54.1
78438;SHT31;67736;51.978;5.656;2023-08-24T14:16:00;28.6;53.6
78438;SHT31;67736;51.978;5.656;2023-08-24T14:18:30;28.7;53.7
78438;SHT31;67736;51.978;5.656;2023-08-24T14:20:59;28.6;53.6
78438;SHT31;67736;51.978;5.656;2023-08-24T14:23:30;28.6;52.9
78438;SHT31;67736;51.978;5.656;2023-08-24T14:26:01;28.6;52.8
78438;SHT31;67736;51.978;5.656;2023-08-24T14:28:49;28.6;53.0
78438;SHT31;67736;51.978;5.656;2023-08-24T14:31:21;28.5;53.4
78438;SHT31;67736;51.978;5.656;2023-08-24T14:33:51;28.5;53.6
78438;SHT31;67736;51.978;5.656;2023-08-24T14:36:22;28.5;53.8
78438;SHT31;67736;51.978;5.656;2023-08-24T14:38:52;28.4;54.0
78438;SHT31;67736;51.978;5.656;2023-08-24T14:41:21;28.4;54.4
78438;SHT31;67736;51.978;5.656;2023-08-24T14:43:51;28.4;54.2
78438;SHT31;67736;51.978;5.656;2023-08-24T14:46:20;28.4;54.4
78438;SHT31;67736;51.978;5.656;2023-08-24T14:48:50;28.3;54.4
78438;SHT31;67736;51.978;5.656;2023-08-24T14:51:19;28.3;54.2
78438;SHT31;67736;51.978;5.656;2023-08-24T14:53:49;28.3;54.6
78438;SHT31;67736;51.978;5.656;2023-08-24T14:56:18;28.3;54.9
78438;SHT31;67736;51.978;5.656;2023-08-24T14:58:48;28.2;54.3
78438;SHT31;67736;51.978;5.656;2023-08-24T15:01:19;28.2;54.0
78438;SHT31;67736;51.978;5.656;2023-08-24T15:03:49;28.2;54.4
78438;SHT31;67736;51.978;5.656;2023-08-24T15:06:18;28.2;54.6
78438;SHT31;67736;51.978;5.656;2023-08-24T15:08:48;28.2;55.0
78438;SHT31;67736;51.978;5.656;2023-08-24T15:11:18;28.1;55.1
78438;SHT31;67736;51.978;5.656;2023-08-24T15:13:47;28.1;55.2
78438;SHT31;67736;51.978;5.656;2023-08-24T15:16:17;28.1;55.2
78438;SHT31;67736;51.978;5.656;2023-08-24T15:18:46;28.1;55.1
78438;SHT31;67736;51.978;5.656;2023-08-24T15:21:16;28.1;55.1
78438;SHT31;67736;51.978;5.656;2023-08-24T15:23:47;28.1;55.6
78438;SHT31;67736;51.978;5.656;2023-08-24T15:26:17;28.0;55.8
78438;SHT31;67736;51.978;5.656;2023-08-24T15:29:08;28.0;55.9
78438;SHT31;67736;51.978;5.656;2023-08-24T15:31:40;28.0;55.7
78438;SHT31;67736;51.978;5.656;2023-08-24T15:34:10;28.0;55.5
78438;SHT31;67736;51.978;5.656;2023-08-24T15:36:39;27.9;55.3
78438;SHT31;67736;51.978;5.656;2023-08-24T15:39:09;27.9;55.4
78438;SHT31;67736;51.978;5.656;2023-08-24T15:41:39;27.9;55.0
78438;SHT31;67736;51.978;5.656;2023-08-24T15:44:09;27.8;55.4
78438;SHT31;67736;51.978;5.656;2023-08-24T15:46:38;27.8;55.5
78438;SHT31;67736;51.978;5.656;2023-08-24T15:49:08;27.8;55.1
78438;SHT31;67736;51.978;5.656;2023-08-24T15:51:37;27.8;54.4
78438;SHT31;67736;51.978;5.656;2023-08-24T15:54:07;27.7;54.6
78438;SHT31;67736;51.978;5.656;2023-08-24T15:56:37;27.7;54.7
78438;SHT31;67736;51.978;5.656;2023-08-24T15:59:09;27.7;55.1
78438;SHT31;67736;51.978;5.656;2023-08-24T16:01:39;27.6;54.9
78438;SHT31;67736;51.978;5.656;2023-08-24T16:04:11;27.6;55.0
78438;SHT31;67736;51.978;5.656;2023-08-24T16:06:40;27.6;55.3
78438;SHT31;67736;51.978;5.656;2023-08-24T16:09:10;27.6;55.0
78438;SHT31;67736;51.978;5.656;2023-08-24T16:11:39;27.6;54.5
78438;SHT31;67736;51.978;5.656;2023-08-24T16:14:09;27.6;54.3
78438;SHT31;67736;51.978;5.656;2023-08-24T16:16:38;27.6;54.1
78438;SHT31;67736;51.978;5.656;2023-08-24T16:19:08;27.5;54.9
78438;SHT31;67736;51.978;5.656;2023-08-24T16:21:37;27.5;54.8
78438;SHT31;67736;51.978;5.656;2023-08-24T16:24:07;27.5;55.1
78438;SHT31;67736;51.978;5.656;2023-08-24T16:26:38;27.5;55.5